createdAt,value
2018-07-08T00:00:43.360Z,975.0
2018-07-08T00:01:45.010Z,975.0
2018-07-08T00:02:46.666Z,974.9
2018-07-08T00:03:48.312Z,974.9
2018-07-08T00:04:49.957Z,974.9
2018-07-08T00:05:51.612Z,975.0
2018-07-08T00:06:53.265Z,974.9
2018-07-08T00:07:54.913Z,974.9
2018-07-08T00:08:56.564Z,974.9
2018-07-08T00:09:58.227Z,974.9
2018-07-08T00:10:59.887Z,974.9
2018-07-08T00:12:01.542Z,974.9
2018-07-08T00:13:03.192Z,974.9
2018-07-08T00:14:05.656Z,974.9
2018-07-08T00:15:07.308Z,974.8
2018-07-08T00:16:08.967Z,974.9
2018-07-08T00:17:10.614Z,974.9
2018-07-08T00:18:12.266Z,974.9
2018-07-08T00:19:13.915Z,974.9
2018-07-08T00:20:15.570Z,974.9
2018-07-08T00:21:17.227Z,974.9
2018-07-08T00:22:18.879Z,974.9
2018-07-08T00:23:20.532Z,974.8
2018-07-08T00:24:22.191Z,974.8
2018-07-08T00:25:23.845Z,974.8
2018-07-08T00:26:25.501Z,974.9
2018-07-08T00:27:27.173Z,974.8
2018-07-08T00:28:28.815Z,974.9
2018-07-08T00:29:30.468Z,974.9
2018-07-08T00:30:32.114Z,974.9
2018-07-08T00:31:34.312Z,974.9
2018-07-08T00:32:35.967Z,974.9
2018-07-08T00:33:37.622Z,974.9
2018-07-08T00:34:39.264Z,974.9
2018-07-08T00:35:40.924Z,974.9
2018-07-08T00:36:42.572Z,974.9
2018-07-08T00:37:44.229Z,974.9
2018-07-08T00:38:45.889Z,974.9
2018-07-08T00:39:47.588Z,974.9
2018-07-08T00:40:49.202Z,974.9
2018-07-08T00:41:50.851Z,974.8
2018-07-08T00:42:52.517Z,974.9
2018-07-08T00:43:54.219Z,974.8
2018-07-08T00:44:55.883Z,974.9
2018-07-08T00:45:57.535Z,974.9
2018-07-08T00:46:59.189Z,974.8
2018-07-08T00:48:00.841Z,974.9
2018-07-08T00:49:02.498Z,974.9
2018-07-08T00:50:04.152Z,974.8
2018-07-08T00:51:05.810Z,974.9
2018-07-08T00:52:07.465Z,974.8
2018-07-08T00:53:09.125Z,974.9
2018-07-08T00:54:10.775Z,974.9
2018-07-08T00:55:12.432Z,974.8
2018-07-08T00:56:14.082Z,974.8
2018-07-08T00:57:15.728Z,974.9
2018-07-08T00:58:17.394Z,974.9
2018-07-08T00:59:19.052Z,974.9
2018-07-08T01:00:21.181Z,974.9
2018-07-08T01:01:22.326Z,975.0
2018-07-08T01:02:23.990Z,974.9
2018-07-08T01:03:25.634Z,974.9
2018-07-08T01:04:27.296Z,975.0
2018-07-08T01:05:28.944Z,974.9
2018-07-08T01:06:30.609Z,974.9
2018-07-08T01:07:32.274Z,974.9
2018-07-08T01:08:33.920Z,974.9
2018-07-08T01:09:35.583Z,974.9
2018-07-08T01:10:37.255Z,974.9
2018-07-08T01:11:38.908Z,974.9
2018-07-08T01:12:40.568Z,974.9
2018-07-08T01:13:42.226Z,974.9
2018-07-08T01:14:43.888Z,975.0
2018-07-08T01:15:45.550Z,974.9
2018-07-08T01:16:47.218Z,975.0
2018-07-08T01:17:48.860Z,974.9
2018-07-08T01:18:50.505Z,974.9
2018-07-08T01:19:52.183Z,975.0
2018-07-08T01:20:53.833Z,975.0
2018-07-08T01:21:55.477Z,974.9
2018-07-08T01:22:57.142Z,974.9
2018-07-08T01:23:58.795Z,975.0
2018-07-08T01:25:00.443Z,975.0
2018-07-08T01:26:02.087Z,975.0
2018-07-08T01:27:03.741Z,975.0
2018-07-08T01:28:05.394Z,975.0
2018-07-08T01:29:07.149Z,975.1
2018-07-08T01:30:08.771Z,975.1
2018-07-08T01:31:10.420Z,975.0
2018-07-08T01:32:12.081Z,975.0
2018-07-08T01:33:13.726Z,975.0
2018-07-08T01:34:15.377Z,975.0
2018-07-08T01:35:17.027Z,975.1
2018-07-08T01:36:18.687Z,975.0
2018-07-08T01:37:20.332Z,975.1
2018-07-08T01:38:21.983Z,975.0
2018-07-08T01:39:23.633Z,975.1
2018-07-08T01:40:25.284Z,975.1
2018-07-08T01:41:26.938Z,975.0
2018-07-08T01:42:28.590Z,975.0
2018-07-08T01:43:30.249Z,975.0
2018-07-08T01:44:31.911Z,975.0
2018-07-08T01:45:33.560Z,975.0
2018-07-08T01:46:35.211Z,975.1
2018-07-08T01:47:36.857Z,975.0
2018-07-08T01:48:38.506Z,975.0
2018-07-08T01:49:40.156Z,975.0
2018-07-08T01:50:41.810Z,975.1
2018-07-08T01:51:43.462Z,975.0
2018-07-08T01:52:45.112Z,975.0
2018-07-08T01:53:46.764Z,975.0
2018-07-08T01:54:48.416Z,975.1
2018-07-08T02:01:02.617Z,975.1
2018-07-08T02:02:04.253Z,975.1
2018-07-08T02:03:56.060Z,975.1
2018-07-08T02:04:57.707Z,975.1
2018-07-08T02:06:49.503Z,975.1
2018-07-08T02:07:51.153Z,975.1
2018-07-08T02:08:52.800Z,975.0
2018-07-08T02:09:54.448Z,975.0
2018-07-08T02:10:56.091Z,975.0
2018-07-08T02:11:57.735Z,975.0
2018-07-08T02:12:59.397Z,975.0
2018-07-08T02:14:01.045Z,975.1
2018-07-08T02:15:02.687Z,975.0
2018-07-08T02:16:04.338Z,975.0
2018-07-08T02:17:06.009Z,975.1
2018-07-08T02:18:07.667Z,975.1
2018-07-08T02:19:09.317Z,975.1
2018-07-08T02:20:10.966Z,975.1
2018-07-08T02:21:12.619Z,975.0
2018-07-08T02:22:14.253Z,975.1
2018-07-08T02:23:15.927Z,975.1
2018-07-08T02:24:17.575Z,975.1
2018-07-08T02:25:19.221Z,975.1
2018-07-08T02:26:20.876Z,975.1
2018-07-08T02:27:22.535Z,975.1
2018-07-08T02:28:24.195Z,975.1
2018-07-08T02:29:25.843Z,975.1
2018-07-08T02:30:27.504Z,975.1
2018-07-08T02:31:29.144Z,975.1
2018-07-08T02:32:30.789Z,975.1
2018-07-08T02:33:32.435Z,975.1
2018-07-08T02:34:34.093Z,975.1
2018-07-08T02:35:35.746Z,975.1
2018-07-08T02:36:37.386Z,975.1
2018-07-08T02:37:39.046Z,975.1
2018-07-08T02:38:40.686Z,975.2
2018-07-08T02:39:42.334Z,975.2
2018-07-08T02:40:43.988Z,975.2
2018-07-08T02:41:45.631Z,975.2
2018-07-08T02:42:47.279Z,975.2
2018-07-08T02:43:48.923Z,975.2
2018-07-08T02:44:50.566Z,975.2
2018-07-08T02:45:52.214Z,975.2
2018-07-08T02:46:53.905Z,975.2
2018-07-08T02:47:55.562Z,975.2
2018-07-08T02:48:57.214Z,975.2
2018-07-08T02:49:58.871Z,975.2
2018-07-08T02:51:00.515Z,975.2
2018-07-08T02:52:02.162Z,975.2
2018-07-08T02:53:03.821Z,975.2
2018-07-08T02:54:05.474Z,975.2
2018-07-08T02:55:07.131Z,975.2
2018-07-08T02:56:08.790Z,975.2
2018-07-08T02:57:10.443Z,975.2
2018-07-08T02:58:12.098Z,975.3
2018-07-08T02:59:13.748Z,975.2
2018-07-08T03:00:15.408Z,975.2
2018-07-08T03:01:17.051Z,975.2
2018-07-08T03:02:18.703Z,975.2
2018-07-08T03:03:20.362Z,975.2
2018-07-08T03:04:22.009Z,975.2
2018-07-08T03:05:23.658Z,975.2
2018-07-08T03:06:25.309Z,975.2
2018-07-08T03:07:26.956Z,975.2
2018-07-08T03:08:28.602Z,975.2
2018-07-08T03:09:30.261Z,975.2
2018-07-08T03:10:31.914Z,975.2
2018-07-08T03:11:33.554Z,975.3
2018-07-08T03:12:35.207Z,975.2
2018-07-08T03:13:36.855Z,975.2
2018-07-08T03:14:38.514Z,975.2
2018-07-08T03:15:40.160Z,975.2
2018-07-08T03:16:41.815Z,975.2
2018-07-08T03:17:43.467Z,975.2
2018-07-08T03:18:45.137Z,975.2
2018-07-08T03:19:46.782Z,975.2
2018-07-08T03:20:48.441Z,975.2
2018-07-08T03:21:50.094Z,975.2
2018-07-08T03:22:51.741Z,975.2
2018-07-08T03:23:53.392Z,975.2
2018-07-08T03:24:55.046Z,975.2
2018-07-08T03:25:56.701Z,975.2
2018-07-08T03:26:58.352Z,975.2
2018-07-08T03:28:00.008Z,975.2
2018-07-08T03:29:01.657Z,975.2
2018-07-08T03:30:03.314Z,975.2
2018-07-08T03:31:04.972Z,975.2
2018-07-08T03:32:06.645Z,975.2
2018-07-08T03:33:08.295Z,975.2
2018-07-08T03:34:09.953Z,975.2
2018-07-08T03:35:11.620Z,975.2
2018-07-08T03:36:13.266Z,975.1
2018-07-08T03:37:14.921Z,975.1
2018-07-08T03:38:16.573Z,975.2
2018-07-08T03:39:18.233Z,975.2
2018-07-08T03:40:19.888Z,975.1
2018-07-08T03:41:21.536Z,975.2
2018-07-08T03:42:23.190Z,975.2
2018-07-08T03:43:24.846Z,975.2
2018-07-08T03:44:26.495Z,975.2
2018-07-08T03:45:28.161Z,975.2
2018-07-08T03:46:29.812Z,975.2
2018-07-08T03:47:31.464Z,975.2
2018-07-08T03:48:33.150Z,975.2
2018-07-08T03:49:34.805Z,975.2
2018-07-08T03:50:36.468Z,975.1
2018-07-08T03:51:38.121Z,975.2
2018-07-08T03:52:39.778Z,975.1
2018-07-08T03:53:41.441Z,975.1
2018-07-08T03:54:43.129Z,975.1
2018-07-08T03:55:44.741Z,975.1
2018-07-08T03:56:46.395Z,975.1
2018-07-08T03:57:48.044Z,975.1
2018-07-08T03:58:49.701Z,975.1
2018-07-08T03:59:51.348Z,975.2
2018-07-08T04:00:53.026Z,975.2
2018-07-08T04:01:54.656Z,975.1
2018-07-08T04:02:56.309Z,975.1
2018-07-08T04:03:57.964Z,975.1
2018-07-08T04:04:59.623Z,975.1
2018-07-08T04:06:01.294Z,975.1
2018-07-08T04:07:02.955Z,975.1
2018-07-08T04:08:04.610Z,975.2
2018-07-08T04:09:06.294Z,975.1
2018-07-08T04:10:07.954Z,975.1
2018-07-08T04:11:09.605Z,975.1
2018-07-08T04:12:11.981Z,975.2
2018-07-08T04:13:13.632Z,975.1
2018-07-08T04:14:15.282Z,975.1
2018-07-08T04:15:16.933Z,975.1
2018-07-08T04:16:18.581Z,975.2
2018-07-08T04:17:20.233Z,975.2
2018-07-08T04:18:21.890Z,975.1
2018-07-08T04:19:23.542Z,975.1
2018-07-08T04:20:25.200Z,975.2
2018-07-08T04:21:26.857Z,975.2
2018-07-08T04:22:28.507Z,975.1
2018-07-08T04:23:30.176Z,975.1
2018-07-08T04:24:31.825Z,975.1
2018-07-08T04:25:33.485Z,975.2
2018-07-08T04:26:35.129Z,975.2
2018-07-08T04:27:36.780Z,975.2
2018-07-08T04:28:38.431Z,975.2
2018-07-08T04:29:40.084Z,975.2
2018-07-08T04:30:41.744Z,975.2
2018-07-08T04:31:43.396Z,975.2
2018-07-08T04:32:45.072Z,975.2
2018-07-08T04:33:46.721Z,975.3
2018-07-08T04:34:48.374Z,975.3
2018-07-08T04:35:50.034Z,975.3
2018-07-08T04:36:51.717Z,975.3
2018-07-08T04:37:53.380Z,975.4
2018-07-08T04:38:55.033Z,975.3
2018-07-08T04:39:56.695Z,975.4
2018-07-08T04:40:58.353Z,975.4
2018-07-08T04:42:00.013Z,975.4
2018-07-08T04:43:01.664Z,975.4
2018-07-08T04:44:03.324Z,975.4
2018-07-08T04:45:04.986Z,975.4
2018-07-08T04:46:06.663Z,975.5
2018-07-08T04:47:08.324Z,975.5
2018-07-08T04:48:09.985Z,975.5
2018-07-08T04:49:11.683Z,975.5
2018-07-08T04:50:13.301Z,975.5
2018-07-08T04:51:14.963Z,975.5
2018-07-08T04:52:16.649Z,975.5
2018-07-08T04:53:18.303Z,975.5
2018-07-08T04:54:19.963Z,975.6
2018-07-08T04:55:21.626Z,975.5
2018-07-08T04:56:23.286Z,975.5
2018-07-08T04:57:24.940Z,975.6
2018-07-08T04:58:26.601Z,975.6
2018-07-08T04:59:28.274Z,975.5
2018-07-08T05:00:29.942Z,975.5
2018-07-08T05:01:31.604Z,975.5
2018-07-08T05:02:33.271Z,975.5
2018-07-08T05:03:34.941Z,975.6
2018-07-08T05:04:36.606Z,975.5
2018-07-08T05:05:38.264Z,975.5
2018-07-08T05:06:39.930Z,975.6
2018-07-08T05:07:41.590Z,975.6
2018-07-08T05:08:43.247Z,975.6
2018-07-08T05:09:44.905Z,975.6
2018-07-08T05:10:46.562Z,975.6
2018-07-08T05:12:04.832Z,975.6
2018-07-08T05:13:05.018Z,975.6
2018-07-08T05:14:06.719Z,975.6
2018-07-08T05:15:08.377Z,975.6
2018-07-08T05:16:10.071Z,975.6
2018-07-08T05:17:11.733Z,975.6
2018-07-08T05:18:13.394Z,975.7
2018-07-08T05:19:15.643Z,975.7
2018-07-08T05:20:17.375Z,975.7
2018-07-08T05:21:18.986Z,975.7
2018-07-08T05:22:20.643Z,975.7
2018-07-08T05:23:23.040Z,975.7
2018-07-08T05:24:24.693Z,975.7
2018-07-08T05:25:28.004Z,975.7
2018-07-08T05:26:29.677Z,975.7
2018-07-08T05:27:31.342Z,975.7
2018-07-08T05:28:33.006Z,975.7
2018-07-08T05:29:34.669Z,975.8
2018-07-08T05:30:36.992Z,975.8
2018-07-08T05:31:38.669Z,975.8
2018-07-08T05:32:40.334Z,975.8
2018-07-08T05:33:41.995Z,975.8
2018-07-08T05:34:43.671Z,975.8
2018-07-08T05:35:45.337Z,975.8
2018-07-08T05:36:46.998Z,975.8
2018-07-08T05:37:48.651Z,975.9
2018-07-08T05:38:50.313Z,975.9
2018-07-08T05:39:51.983Z,975.8
2018-07-08T05:40:53.656Z,975.9
2018-07-08T05:41:55.313Z,975.9
2018-07-08T05:42:56.980Z,975.9
2018-07-08T05:43:58.677Z,975.9
2018-07-08T05:45:00.342Z,975.9
2018-07-08T05:46:02.009Z,976.0
2018-07-08T05:47:03.672Z,976.0
2018-07-08T05:48:05.336Z,976.0
2018-07-08T05:49:07.034Z,976.0
2018-07-08T05:50:08.780Z,976.0
2018-07-08T05:51:10.392Z,976.0
2018-07-08T05:52:12.060Z,976.0
2018-07-08T05:53:13.726Z,976.0
2018-07-08T05:54:15.381Z,976.0
2018-07-08T05:55:17.054Z,976.0
2018-07-08T06:01:51.265Z,976.0
2018-07-08T06:02:52.928Z,975.9
2018-07-08T06:04:44.838Z,976.0
2018-07-08T06:05:46.495Z,975.9
2018-07-08T06:07:38.388Z,975.9
2018-07-08T06:08:40.678Z,975.9
2018-07-08T06:10:32.496Z,975.9
2018-07-08T06:11:34.986Z,975.9
2018-07-08T06:13:26.871Z,975.9
2018-07-08T06:14:28.535Z,975.9
2018-07-08T06:16:20.352Z,975.9
2018-07-08T06:17:22.058Z,975.9
2018-07-08T06:19:13.926Z,975.9
2018-07-08T06:20:15.601Z,975.9
2018-07-08T06:22:07.400Z,975.9
2018-07-08T06:23:09.064Z,976.0
2018-07-08T06:25:00.956Z,976.0
2018-07-08T06:26:02.664Z,975.9
2018-07-08T06:27:54.424Z,975.9
2018-07-08T06:28:56.081Z,975.9
2018-07-08T06:29:57.746Z,976.0
2018-07-08T06:30:59.422Z,976.0
2018-07-08T06:32:01.105Z,976.0
2018-07-08T06:33:02.777Z,975.9
2018-07-08T06:34:04.450Z,976.0
2018-07-08T06:35:06.178Z,975.9
2018-07-08T06:36:07.836Z,975.9
2018-07-08T06:37:09.504Z,976.0
2018-07-08T06:38:11.176Z,975.9
2018-07-08T06:39:12.900Z,976.0
2018-07-08T06:40:14.516Z,976.0
2018-07-08T06:41:16.180Z,976.0
2018-07-08T06:42:17.848Z,975.9
2018-07-08T06:43:19.516Z,975.9
2018-07-08T06:44:21.177Z,975.9
2018-07-08T06:45:22.844Z,975.9
2018-07-08T06:46:24.510Z,975.9
2018-07-08T06:47:26.180Z,975.9
2018-07-08T06:48:27.850Z,975.8
2018-07-08T06:49:29.527Z,975.9
2018-07-08T06:50:31.194Z,975.9
2018-07-08T06:51:32.862Z,975.9
2018-07-08T06:52:34.528Z,975.9
2018-07-08T06:53:36.206Z,975.9
2018-07-08T06:54:37.882Z,975.9
2018-07-08T06:55:39.554Z,975.9
2018-07-08T06:56:41.221Z,975.9
2018-07-08T06:57:42.894Z,975.9
2018-07-08T06:58:44.557Z,975.9
2018-07-08T06:59:46.220Z,976.0
2018-07-08T07:00:47.904Z,975.9
2018-07-08T07:01:49.559Z,976.0
2018-07-08T07:02:51.229Z,976.0
2018-07-08T07:03:52.904Z,976.0
2018-07-08T07:04:54.574Z,976.0
2018-07-08T07:05:56.245Z,976.0
2018-07-08T07:06:57.917Z,976.0
2018-07-08T07:07:59.593Z,976.0
2018-07-08T07:09:01.264Z,976.0
2018-07-08T07:10:02.950Z,976.0
2018-07-08T07:11:04.622Z,976.0
2018-07-08T07:12:06.318Z,976.0
2018-07-08T07:13:08.000Z,976.0
2018-07-08T07:14:09.665Z,976.0
2018-07-08T07:15:11.339Z,976.0
2018-07-08T07:16:13.010Z,976.0
2018-07-08T07:17:14.685Z,976.0
2018-07-08T07:18:16.419Z,976.0
2018-07-08T07:19:18.094Z,976.0
2018-07-08T07:20:19.771Z,976.0
2018-07-08T07:21:21.437Z,976.1
2018-07-08T07:22:23.125Z,976.0
2018-07-08T07:23:24.795Z,976.0
2018-07-08T07:24:26.475Z,976.1
2018-07-08T07:25:28.155Z,976.0
2018-07-08T07:26:29.829Z,976.0
2018-07-08T07:27:31.491Z,976.0
2018-07-08T07:28:33.163Z,976.0
2018-07-08T07:29:34.836Z,976.0
2018-07-08T07:30:36.520Z,976.0
2018-07-08T07:31:38.195Z,976.0
2018-07-08T07:32:39.865Z,976.1
2018-07-08T07:33:41.540Z,976.1
2018-07-08T07:34:43.212Z,976.1
2018-07-08T07:35:44.895Z,976.1
2018-07-08T07:36:46.576Z,976.1
2018-07-08T07:37:48.246Z,976.1
2018-07-08T07:38:49.924Z,976.1
2018-07-08T07:39:51.608Z,976.1
2018-07-08T07:40:53.285Z,976.1
2018-07-08T07:41:54.967Z,976.1
2018-07-08T07:42:56.645Z,976.1
2018-07-08T07:43:58.309Z,976.1
2018-07-08T07:44:59.990Z,976.1
2018-07-08T07:46:01.669Z,976.1
2018-07-08T07:47:03.345Z,976.1
2018-07-08T07:48:05.026Z,976.2
2018-07-08T07:49:06.739Z,976.2
2018-07-08T07:50:08.404Z,976.2
2018-07-08T07:51:10.125Z,976.2
2018-07-08T07:52:11.758Z,976.2
2018-07-08T07:53:13.474Z,976.1
2018-07-08T07:54:15.106Z,976.1
2018-07-08T07:55:16.785Z,976.1
2018-07-08T07:56:18.458Z,976.2
2018-07-08T07:57:20.126Z,976.2
2018-07-08T07:58:21.803Z,976.2
2018-07-08T07:59:23.480Z,976.1
2018-07-08T08:00:25.156Z,976.1
2018-07-08T08:01:26.837Z,976.1
2018-07-08T08:02:28.521Z,976.1
2018-07-08T08:03:30.184Z,976.1
2018-07-08T08:04:31.861Z,976.1
2018-07-08T08:05:33.532Z,976.1
2018-07-08T08:06:35.211Z,976.1
2018-07-08T08:07:36.891Z,976.1
2018-07-08T08:08:38.564Z,976.1
2018-07-08T08:09:40.233Z,976.1
2018-07-08T08:10:41.931Z,976.1
2018-07-08T08:11:44.362Z,976.1
2018-07-08T08:12:46.058Z,976.1
2018-07-08T08:13:47.735Z,976.1
2018-07-08T08:14:49.418Z,976.1
2018-07-08T08:15:51.101Z,976.1
2018-07-08T08:16:52.767Z,976.1
2018-07-08T08:17:54.447Z,976.1
2018-07-08T08:18:56.132Z,976.1
2018-07-08T08:19:57.817Z,976.1
2018-07-08T08:20:59.519Z,976.1
2018-07-08T08:22:01.173Z,976.1
2018-07-08T08:23:02.847Z,976.1
2018-07-08T08:24:04.527Z,976.1
2018-07-08T08:25:06.230Z,976.1
2018-07-08T08:26:07.910Z,976.1
2018-07-08T08:27:09.606Z,976.1
2018-07-08T08:28:12.019Z,976.1
2018-07-08T08:29:13.708Z,976.1
2018-07-08T08:30:15.391Z,976.2
2018-07-08T08:31:17.065Z,976.2
2018-07-08T08:32:18.746Z,976.2
2018-07-08T08:33:20.413Z,976.2
2018-07-08T08:34:22.098Z,976.1
2018-07-08T08:35:23.776Z,976.2
2018-07-08T08:36:25.459Z,976.2
2018-07-08T08:37:27.139Z,976.2
2018-07-08T08:38:28.819Z,976.2
2018-07-08T08:39:30.494Z,976.2
2018-07-08T08:40:32.167Z,976.2
2018-07-08T08:41:33.854Z,976.2
2018-07-08T08:42:35.543Z,976.3
2018-07-08T08:43:37.214Z,976.3
2018-07-08T08:44:38.901Z,976.3
2018-07-08T08:45:40.581Z,976.3
2018-07-08T08:46:42.254Z,976.3
2018-07-08T08:47:43.936Z,976.3
2018-07-08T08:48:45.623Z,976.2
2018-07-08T08:49:47.308Z,976.3
2018-07-08T08:50:48.977Z,976.2
2018-07-08T08:51:50.661Z,976.3
2018-07-08T08:52:52.342Z,976.2
2018-07-08T08:53:54.024Z,976.3
2018-07-08T08:54:55.710Z,976.3
2018-07-08T08:55:57.392Z,976.3
2018-07-08T08:56:59.079Z,976.3
2018-07-08T08:58:00.766Z,976.3
2018-07-08T08:59:02.447Z,976.3
2018-07-08T09:00:04.121Z,976.3
2018-07-08T09:01:05.804Z,976.3
2018-07-08T09:02:07.488Z,976.2
2018-07-08T09:03:09.164Z,976.2
2018-07-08T09:04:10.848Z,976.2
2018-07-08T09:05:12.532Z,976.3
2018-07-08T09:06:14.230Z,976.3
2018-07-08T09:07:15.911Z,976.3
2018-07-08T09:08:17.588Z,976.2
2018-07-08T09:09:19.275Z,976.3
2018-07-08T09:10:20.961Z,976.2
2018-07-08T09:11:22.638Z,976.2
2018-07-08T09:12:24.320Z,976.2
2018-07-08T09:13:25.994Z,976.2
2018-07-08T09:14:27.678Z,976.2
2018-07-08T09:15:29.374Z,976.2
2018-07-08T09:16:31.053Z,976.2
2018-07-08T09:17:32.741Z,976.2
2018-07-08T09:18:34.417Z,976.2
2018-07-08T09:19:36.098Z,976.2
2018-07-08T09:20:37.771Z,976.2
2018-07-08T09:21:39.456Z,976.3
2018-07-08T09:22:41.134Z,976.2
2018-07-08T09:23:42.870Z,976.2
2018-07-08T09:24:44.745Z,976.2
2018-07-08T09:25:46.419Z,976.3
2018-07-08T09:26:48.105Z,976.2
2018-07-08T09:27:49.788Z,976.2
2018-07-08T09:28:51.499Z,976.2
2018-07-08T09:29:53.177Z,976.2
2018-07-08T09:30:54.874Z,976.2
2018-07-08T09:31:56.552Z,976.2
2018-07-08T09:32:59.115Z,976.2
2018-07-08T09:34:00.785Z,976.2
2018-07-08T09:35:02.464Z,976.2
2018-07-08T09:36:04.150Z,976.2
2018-07-08T09:37:05.828Z,976.2
2018-07-08T09:38:07.518Z,976.2
2018-07-08T09:39:09.347Z,976.2
2018-07-08T09:40:10.902Z,976.2
2018-07-08T09:41:12.578Z,976.3
2018-07-08T09:42:14.265Z,976.3
2018-07-08T09:43:15.949Z,976.3
2018-07-08T09:44:17.630Z,976.3
2018-07-08T09:45:19.312Z,976.3
2018-07-08T09:46:20.985Z,976.3
2018-07-08T09:47:22.665Z,976.3
2018-07-08T09:48:24.349Z,976.3
2018-07-08T09:49:26.027Z,976.3
2018-07-08T09:50:27.716Z,976.3
2018-07-08T09:51:29.397Z,976.3
2018-07-08T09:52:31.142Z,976.3
2018-07-08T09:53:32.769Z,976.3
2018-07-08T09:54:34.451Z,976.3
2018-07-08T09:55:36.241Z,976.3
2018-07-08T10:01:29.474Z,976.3
2018-07-08T10:02:31.151Z,976.3
2018-07-08T10:03:32.840Z,976.3
2018-07-08T10:04:35.425Z,976.3
2018-07-08T10:05:36.993Z,976.3
2018-07-08T10:06:38.664Z,976.4
2018-07-08T10:07:40.355Z,976.3
2018-07-08T10:08:42.054Z,976.3
2018-07-08T10:09:43.724Z,976.3
2018-07-08T10:10:45.452Z,976.3
2018-07-08T10:11:47.080Z,976.3
2018-07-08T10:12:48.755Z,976.3
2018-07-08T10:13:50.479Z,976.3
2018-07-08T10:14:52.120Z,976.4
2018-07-08T10:15:53.805Z,976.3
2018-07-08T10:16:55.473Z,976.3
2018-07-08T10:17:57.151Z,976.3
2018-07-08T10:18:59.578Z,976.3
2018-07-08T10:20:01.300Z,976.4
2018-07-08T10:21:02.954Z,976.3
2018-07-08T10:22:04.635Z,976.4
2018-07-08T10:23:06.341Z,976.4
2018-07-08T10:24:08.025Z,976.4
2018-07-08T10:25:09.699Z,976.4
2018-07-08T10:26:11.387Z,976.4
2018-07-08T10:27:13.058Z,976.4
2018-07-08T10:28:14.734Z,976.4
2018-07-08T10:29:16.425Z,976.4
2018-07-08T10:30:18.120Z,976.4
2018-07-08T10:31:19.802Z,976.3
2018-07-08T10:32:21.499Z,976.3
2018-07-08T10:33:23.178Z,976.3
2018-07-08T10:34:24.851Z,976.3
2018-07-08T10:35:26.535Z,976.3
2018-07-08T10:36:28.223Z,976.3
2018-07-08T10:37:29.915Z,976.3
2018-07-08T10:38:31.602Z,976.3
2018-07-08T10:39:33.282Z,976.4
2018-07-08T10:40:34.959Z,976.3
2018-07-08T10:41:36.643Z,976.3
2018-07-08T10:42:38.342Z,976.3
2018-07-08T10:43:40.013Z,976.2
2018-07-08T10:44:41.705Z,976.3
2018-07-08T10:45:43.393Z,976.2
2018-07-08T10:46:45.071Z,976.2
2018-07-08T10:47:46.755Z,976.2
2018-07-08T10:48:48.464Z,976.1
2018-07-08T10:49:50.138Z,976.2
2018-07-08T10:50:51.826Z,976.2
2018-07-08T10:51:53.515Z,976.2
2018-07-08T10:52:55.192Z,976.2
2018-07-08T10:53:56.883Z,976.2
2018-07-08T10:54:58.569Z,976.3
2018-07-08T10:56:00.257Z,976.2
2018-07-08T10:57:01.948Z,976.2
2018-07-08T10:58:03.631Z,976.2
2018-07-08T10:59:05.316Z,976.2
2018-07-08T11:00:07.024Z,976.3
2018-07-08T11:01:08.717Z,976.2
2018-07-08T11:02:10.396Z,976.2
2018-07-08T11:03:12.072Z,976.2
2018-07-08T11:04:13.760Z,976.2
2018-07-08T11:05:15.442Z,976.2
2018-07-08T11:06:17.133Z,976.1
2018-07-08T11:07:18.821Z,976.2
2018-07-08T11:08:20.504Z,976.1
2018-07-08T11:09:22.209Z,976.1
2018-07-08T11:10:23.895Z,976.2
2018-07-08T11:11:25.586Z,976.1
2018-07-08T11:12:27.264Z,976.2
2018-07-08T11:13:28.942Z,976.1
2018-07-08T11:14:30.634Z,976.2
2018-07-08T11:15:32.299Z,976.1
2018-07-08T11:16:33.980Z,976.2
2018-07-08T11:17:35.674Z,976.1
2018-07-08T11:18:37.350Z,976.1
2018-07-08T11:19:39.052Z,976.2
2018-07-08T11:20:40.842Z,976.1
2018-07-08T11:21:42.393Z,976.1
2018-07-08T11:22:44.070Z,976.2
2018-07-08T11:23:45.748Z,976.2
2018-07-08T11:24:47.440Z,976.2
2018-07-08T11:25:49.113Z,976.1
2018-07-08T11:26:50.802Z,976.2
2018-07-08T11:27:52.486Z,976.2
2018-07-08T11:28:54.165Z,976.2
2018-07-08T11:29:55.921Z,976.1
2018-07-08T11:30:57.606Z,976.1
2018-07-08T11:31:59.289Z,976.1
2018-07-08T11:33:00.972Z,976.0
2018-07-08T11:34:02.664Z,976.1
2018-07-08T11:35:04.343Z,976.1
2018-07-08T11:36:06.064Z,976.1
2018-07-08T11:37:07.744Z,976.2
2018-07-08T11:38:09.429Z,976.1
2018-07-08T11:39:11.111Z,976.1
2018-07-08T11:40:12.791Z,976.1
2018-07-08T11:41:14.481Z,976.1
2018-07-08T11:42:16.168Z,976.1
2018-07-08T11:43:17.850Z,976.1
2018-07-08T11:44:19.523Z,976.3
2018-07-08T11:45:21.199Z,976.2
2018-07-08T11:46:22.898Z,976.2
2018-07-08T11:47:24.589Z,976.2
2018-07-08T11:48:26.280Z,976.2
2018-07-08T11:49:27.969Z,976.1
2018-07-08T11:50:29.654Z,976.1
2018-07-08T11:51:31.352Z,976.1
2018-07-08T11:52:33.031Z,976.2
2018-07-08T11:53:34.705Z,976.1
2018-07-08T11:54:36.399Z,976.1
2018-07-08T11:55:38.087Z,976.1
2018-07-08T11:56:39.774Z,976.1
2018-07-08T11:57:41.451Z,976.1
2018-07-08T11:58:43.188Z,976.1
2018-07-08T11:59:44.902Z,976.0
2018-07-08T12:00:46.582Z,976.0
2018-07-08T12:01:48.300Z,976.0
2018-07-08T12:02:49.965Z,976.2
2018-07-08T12:03:51.655Z,976.1
2018-07-08T12:04:53.352Z,976.1
2018-07-08T12:05:55.050Z,976.0
2018-07-08T12:06:56.720Z,976.0
2018-07-08T12:07:58.393Z,976.0
2018-07-08T12:09:00.132Z,976.0
2018-07-08T12:10:01.757Z,975.9
2018-07-08T12:11:03.440Z,976.0
2018-07-08T12:12:05.127Z,975.9
2018-07-08T12:13:06.827Z,976.0
2018-07-08T12:14:08.506Z,976.0
2018-07-08T12:15:10.188Z,976.0
2018-07-08T12:16:11.868Z,975.9
2018-07-08T12:17:13.584Z,975.9
2018-07-08T12:18:15.257Z,975.9
2018-07-08T12:19:16.931Z,975.9
2018-07-08T12:20:18.624Z,975.9
2018-07-08T12:21:20.324Z,976.0
2018-07-08T12:22:21.937Z,976.0
2018-07-08T12:23:23.664Z,976.0
2018-07-08T12:24:25.364Z,975.9
2018-07-08T12:25:27.042Z,976.0
2018-07-08T12:26:28.725Z,976.0
2018-07-08T12:27:30.420Z,976.0
2018-07-08T12:28:32.089Z,976.0
2018-07-08T12:29:33.772Z,976.0
2018-07-08T12:30:35.459Z,976.0
2018-07-08T12:31:37.132Z,976.0
2018-07-08T12:32:38.818Z,976.0
2018-07-08T12:33:40.501Z,976.0
2018-07-08T12:34:42.174Z,976.1
2018-07-08T12:35:43.854Z,976.1
2018-07-08T12:36:45.559Z,976.0
2018-07-08T12:37:47.235Z,976.1
2018-07-08T12:38:48.912Z,976.1
2018-07-08T12:39:50.606Z,976.1
2018-07-08T12:40:52.285Z,976.0
2018-07-08T12:41:53.968Z,976.0
2018-07-08T12:42:55.664Z,976.0
2018-07-08T12:43:57.346Z,976.0
2018-07-08T12:44:59.013Z,976.1
2018-07-08T12:46:00.703Z,976.1
2018-07-08T12:47:02.383Z,976.0
2018-07-08T12:48:04.074Z,976.1
2018-07-08T12:49:05.743Z,976.1
2018-07-08T12:50:07.421Z,976.1
2018-07-08T12:51:09.654Z,976.2
2018-07-08T12:52:11.330Z,976.1
2018-07-08T12:53:13.024Z,976.1
2018-07-08T12:54:14.699Z,976.2
2018-07-08T12:55:16.378Z,976.2
2018-07-08T12:56:18.055Z,976.2
2018-07-08T12:57:19.741Z,976.1
2018-07-08T12:58:21.418Z,976.2
2018-07-08T12:59:23.119Z,976.1
2018-07-08T13:00:24.781Z,976.2
2018-07-08T13:01:26.476Z,976.3
2018-07-08T13:02:28.154Z,976.3
2018-07-08T13:03:29.837Z,976.4
2018-07-08T13:04:31.512Z,976.5
2018-07-08T13:05:33.201Z,976.4
2018-07-08T13:06:34.938Z,976.6
2018-07-08T13:07:36.559Z,976.6
2018-07-08T13:08:38.247Z,976.7
2018-07-08T13:09:39.921Z,976.8
2018-07-08T13:10:41.602Z,976.7
2018-07-08T13:11:43.309Z,976.7
2018-07-08T13:12:44.938Z,976.8
2018-07-08T13:13:46.619Z,976.7
2018-07-08T13:14:48.311Z,976.7
2018-07-08T13:15:49.993Z,976.7
2018-07-08T13:16:51.675Z,976.8
2018-07-08T13:17:53.357Z,976.8
2018-07-08T13:18:55.076Z,976.8
2018-07-08T13:19:56.786Z,977.0
2018-07-08T13:20:58.452Z,977.1
2018-07-08T13:22:01.012Z,977.1
2018-07-08T13:23:02.691Z,977.2
2018-07-08T13:24:04.384Z,977.2
2018-07-08T13:25:06.091Z,977.2
2018-07-08T13:26:07.767Z,977.4
2018-07-08T13:27:09.446Z,977.4
2018-07-08T13:28:11.139Z,977.5
2018-07-08T13:29:12.813Z,977.5
2018-07-08T13:30:14.504Z,977.4
2018-07-08T13:31:16.178Z,977.5
2018-07-08T13:32:17.964Z,977.5
2018-07-08T13:33:19.523Z,977.5
2018-07-08T13:34:21.215Z,977.5
2018-07-08T13:35:22.890Z,977.5
2018-07-08T13:36:24.567Z,977.5
2018-07-08T13:37:26.257Z,977.5
2018-07-08T13:38:27.937Z,977.6
2018-07-08T13:39:29.623Z,977.2